Eufaula, Alabama
Current Conditions -  °F | °C
As of 2:58 PM on Saturday 22 Nov 2014 (Local Time) from KEUF Reporting Station
Light Rain Light Rain  
Wind Chill: 65°   Ceiling: 3500
Heat Index: 65°   Visibility: 10mi
Dew Point: 50°   Wind: 7mph
Humidity: 58%   Direction: 80°E
Pressure: 30.2"   Gusts: NA
Location:  31.9°N, 85.14°W
Report Text: KEUF 222058Z AUTO 08006KT 10SM -RA OVC035 18/10 A3020 RMK AO2 RAB54 SLP227 P0000 60000 T01830100 56024 $
Loading
Personal Weather Stations






























Interactive Weather Map New forecast layout! Learn more

10-Day Weather Forecast

Advertisements
Track Severe Weather on mobile